KISQ/ISQ METAR and TAF weather

Enter ICAO airport designator
Station Type Date Time Source
KISQ METAR 2019/05/20 11:15 UTC NOAA

KISQ 201115Z AUTO 35011KT 10SM OVC010 04/03 A2981 RMK AO2 T00410025


Station Type Date Time Source
KISQ Decoded METAR 2019/05/20 11:15 UTC NOAA

Manistique, Schoolcraft County Airport, MI, United States (KISQ) 45-58-29N 086-10-19W
May 20, 2019 - 07:15 AM EDT / 2019.05.20 1115 UTC
Wind: from the N (350 degrees) at 13 MPH (11 KT):0
Visibility: 10 mile(s):0
Sky conditions: overcast
Temperature: 39.4 F (4.1 C)
Dew Point: 36.5 F (2.5 C)
Relative Humidity: 89%
Pressure (altimeter): 29.81 in. Hg (1009 hPa)
ob: KISQ 201115Z AUTO 35011KT 10SM OVC010 04/03 A2981 RMK AO2 T00410025
cycle: 11

Station Type Date Time Source
KISQ TAF UTC NOAA

Error!

Example: see airport list